メインページ
METAR-TAF:

METAR-TAF

空港 :

Holland, ミシガン州, アメリカ合衆国

緯度: 42-44-46N, 経度: 086-05-48W, 海抜: 209m

現時点の気象観測

当レポートは57分前の03:53(UTC)に作成
南/南西の風 4kt
気温 22°C
湿度 100%
気圧 1015 hPa
視程: 12.9km
晴天

METAR: KBIV 210353Z AUTO 21004KT 8SM CLR 22/22 A2997 RMK AO2 SLP144 T02170217

時間: 00:50 (04:50 UTC)


TAF: 見つかりません

4,000以上の空港の気象観測と天気予報(METAR報とTAF報)

利用可能な観測所は地図上に黄色い丸と赤い丸で示す。

丸の上にカーソルを重ねると観測所名を参照できる。

次にクリックすると気象観測と天気予報を参照できる。

マップの切り替え:黒色「×」印の緑ボタンをクリックして拡大、「-」印の緑ボタンをクリックして縮小、緑色の三角印をクリックして隣りの地図に切り替え


METAR-TAF: